Gravesend, United Kingdom
Current Conditions -  °F | °C
As of 12:50 AM on Thursday 18 Dec 2014 (Local Time) from EGLC Reporting Station
Broken Clouds Broken Clouds  
Wind Chill: 55°   Ceiling: 1200
Heat Index: 55°   Visibility: 6mi
Dew Point: 50°   Wind: 18mph
Humidity: 82%   Direction: 260°W
Pressure: 29.77"   Gusts: NA
Location:  51.44°N, 0.37°E
Report Text: EGLC 180050Z AUTO 26016KT 9999 BKN012/// 13/10 Q1008
Loading
Personal Weather Stations






























Interactive Weather Map New forecast layout! Learn more

10-Day Weather Forecast

Advertisements
Track Severe Weather on mobile